createdAt,value
2017-05-25T00:00:48.011Z,16.40
2017-05-25T00:03:16.822Z,16.30
2017-05-25T00:05:45.637Z,16.30
2017-05-25T00:08:14.528Z,16.40
2017-05-25T00:10:43.354Z,16.20
2017-05-25T00:13:12.200Z,16.10
2017-05-25T00:15:41.049Z,16.10
2017-05-25T00:18:09.857Z,16.10
2017-05-25T00:20:38.735Z,15.90
2017-05-25T00:23:07.539Z,15.80
2017-05-25T00:25:36.374Z,15.70
2017-05-25T00:28:05.211Z,15.70
2017-05-25T00:30:34.052Z,15.70
2017-05-25T00:33:02.906Z,15.70
2017-05-25T00:35:31.711Z,15.70
2017-05-25T00:38:00.553Z,15.70
2017-05-25T00:40:29.380Z,15.60
2017-05-25T00:42:58.204Z,15.60
2017-05-25T00:45:27.014Z,15.60
2017-05-25T00:47:55.863Z,15.60
2017-05-25T00:50:24.681Z,15.60
2017-05-25T00:52:53.490Z,15.60
2017-05-25T00:55:22.355Z,15.70
2017-05-25T00:57:51.183Z,15.70
2017-05-25T01:00:19.991Z,15.70
2017-05-25T01:02:48.834Z,15.70
2017-05-25T01:05:17.656Z,15.70
2017-05-25T01:07:46.477Z,15.60
2017-05-25T01:10:15.354Z,15.70
2017-05-25T01:12:44.165Z,15.70
2017-05-25T01:15:12.971Z,15.70
2017-05-25T01:17:41.838Z,15.80
2017-05-25T01:20:10.672Z,15.80
2017-05-25T01:22:39.526Z,15.80
2017-05-25T01:25:08.358Z,15.80
2017-05-25T01:27:37.172Z,15.70
2017-05-25T01:30:05.986Z,15.70
2017-05-25T01:32:34.824Z,15.80
2017-05-25T01:35:03.663Z,15.90
2017-05-25T01:37:32.484Z,16.00
2017-05-25T01:40:01.295Z,15.90
2017-05-25T01:42:30.138Z,15.90
2017-05-25T01:44:58.952Z,16.00
2017-05-25T01:47:27.769Z,16.10
2017-05-25T01:49:56.602Z,16.10
2017-05-25T01:52:25.520Z,16.20
2017-05-25T01:54:54.299Z,16.20
2017-05-25T01:57:23.124Z,16.10
2017-05-25T01:59:51.982Z,16.00
2017-05-25T02:02:20.834Z,15.90
2017-05-25T02:04:49.648Z,15.70
2017-05-25T02:07:18.458Z,15.70
2017-05-25T02:09:47.290Z,15.70
2017-05-25T02:12:16.111Z,15.60
2017-05-25T02:14:44.919Z,15.60
2017-05-25T02:17:13.743Z,15.70
2017-05-25T02:19:42.572Z,15.60
2017-05-25T02:22:11.381Z,15.60
2017-05-25T02:24:40.216Z,15.60
2017-05-25T02:27:09.163Z,15.60
2017-05-25T02:29:38.018Z,15.60
2017-05-25T02:32:06.847Z,15.50
2017-05-25T02:34:35.706Z,15.50
2017-05-25T02:37:04.592Z,15.50
2017-05-25T02:39:33.468Z,15.50
2017-05-25T02:42:02.287Z,15.40
2017-05-25T02:44:31.131Z,15.40
2017-05-25T02:47:00.015Z,15.40
2017-05-25T02:49:28.808Z,15.50
2017-05-25T02:51:57.625Z,15.50
2017-05-25T02:54:26.470Z,15.50
2017-05-25T02:56:55.289Z,15.50
2017-05-25T02:59:24.130Z,15.60
2017-05-25T03:01:53.042Z,15.60
2017-05-25T03:04:21.874Z,15.60
2017-05-25T03:06:50.770Z,15.50
2017-05-25T03:09:19.665Z,15.40
2017-05-25T03:11:48.456Z,15.40
2017-05-25T03:14:17.322Z,15.30
2017-05-25T03:16:46.133Z,15.30
2017-05-25T03:19:14.980Z,15.20
2017-05-25T03:21:43.842Z,15.20
2017-05-25T03:24:12.684Z,15.10
2017-05-25T03:26:41.576Z,15.10
2017-05-25T03:29:10.387Z,15.10
2017-05-25T03:31:39.208Z,15.00
2017-05-25T03:34:08.036Z,15.00
2017-05-25T03:36:36.858Z,15.00
2017-05-25T03:39:05.718Z,15.00
2017-05-25T03:41:34.611Z,15.00
2017-05-25T03:44:03.490Z,14.90
2017-05-25T03:46:32.463Z,15.00
2017-05-25T03:49:01.416Z,14.90
2017-05-25T03:51:30.265Z,15.00
2017-05-25T03:53:59.154Z,15.00
2017-05-25T03:56:27.970Z,15.00
2017-05-25T03:58:56.782Z,15.00
2017-05-25T04:01:25.603Z,15.10
2017-05-25T04:03:54.466Z,15.00
2017-05-25T04:06:23.282Z,15.00
2017-05-25T04:08:52.099Z,15.20
2017-05-25T04:11:20.938Z,15.20
2017-05-25T04:13:49.742Z,15.20
2017-05-25T04:16:18.545Z,15.00
2017-05-25T04:18:47.371Z,14.90
2017-05-25T04:21:16.209Z,14.70
2017-05-25T04:23:45.027Z,14.80
2017-05-25T04:26:13.848Z,14.80
2017-05-25T04:28:42.671Z,14.90
2017-05-25T04:31:11.509Z,14.90
2017-05-25T04:33:40.328Z,14.90
2017-05-25T04:36:09.145Z,14.90
2017-05-25T04:38:38.003Z,14.80
2017-05-25T04:41:06.856Z,14.90
2017-05-25T04:43:35.675Z,15.00
2017-05-25T04:46:04.515Z,15.00
2017-05-25T04:48:33.369Z,15.10
2017-05-25T04:51:02.190Z,15.20
2017-05-25T04:53:31.108Z,15.30
2017-05-25T04:55:59.889Z,15.30
2017-05-25T04:58:28.748Z,15.40
2017-05-25T05:00:57.606Z,15.30
2017-05-25T05:03:26.519Z,15.40
2017-05-25T05:05:55.496Z,15.50
2017-05-25T05:08:24.384Z,15.40
2017-05-25T05:10:53.254Z,15.60
2017-05-25T05:13:21.418Z,15.50
2017-05-25T05:15:50.189Z,15.70
2017-05-25T05:18:19.002Z,15.70
2017-05-25T05:20:47.834Z,15.80
2017-05-25T05:23:16.638Z,15.90
2017-05-25T05:25:45.446Z,16.00
2017-05-25T05:28:14.288Z,16.10
2017-05-25T05:30:43.092Z,16.20
2017-05-25T05:33:11.952Z,16.30
2017-05-25T05:35:40.804Z,16.20
2017-05-25T05:38:09.629Z,16.40
2017-05-25T05:40:38.519Z,16.50
2017-05-25T05:43:07.387Z,16.60
2017-05-25T05:45:36.192Z,16.70
2017-05-25T05:48:05.138Z,16.80
2017-05-25T05:50:34.007Z,17.00
2017-05-25T05:53:02.839Z,17.20
2017-05-25T05:55:31.650Z,17.40
2017-05-25T05:58:00.462Z,17.50
2017-05-25T06:00:29.384Z,17.50
2017-05-25T06:02:58.228Z,17.60
2017-05-25T06:05:27.101Z,17.80
2017-05-25T06:07:55.924Z,17.70
2017-05-25T06:10:24.734Z,17.90
2017-05-25T06:12:53.546Z,18.00
2017-05-25T06:15:28.141Z,18.40
2017-05-25T06:17:56.956Z,18.40
2017-05-25T06:20:25.766Z,18.40
2017-05-25T06:22:53.885Z,18.40
2017-05-25T06:25:22.825Z,18.60
2017-05-25T06:27:51.619Z,18.70
2017-05-25T06:30:20.454Z,18.80
2017-05-25T06:32:49.392Z,18.70
2017-05-25T06:35:18.240Z,18.70
2017-05-25T06:37:47.124Z,18.90
2017-05-25T06:40:16.030Z,19.10
2017-05-25T06:42:44.916Z,19.20
2017-05-25T06:45:13.794Z,19.20
2017-05-25T06:47:42.768Z,19.30
2017-05-25T06:50:11.717Z,19.40
2017-05-25T06:52:40.550Z,19.20
2017-05-25T06:55:09.363Z,19.10
2017-05-25T06:57:38.233Z,19.30
2017-05-25T07:00:07.054Z,19.60
2017-05-25T07:02:35.863Z,19.80
2017-05-25T07:05:04.749Z,19.80
2017-05-25T07:07:32.774Z,19.80
2017-05-25T07:10:01.583Z,19.90
2017-05-25T07:12:30.446Z,19.90
2017-05-25T07:14:59.278Z,19.90
2017-05-25T07:17:28.134Z,19.90
2017-05-25T07:19:57.540Z,19.80
2017-05-25T07:22:26.413Z,19.90
2017-05-25T07:24:55.229Z,19.90
2017-05-25T07:27:24.070Z,19.90
2017-05-25T07:29:52.935Z,20.20
2017-05-25T07:32:21.745Z,20.50
2017-05-25T07:34:50.578Z,20.60
2017-05-25T07:37:19.414Z,20.50
2017-05-25T07:39:48.249Z,20.60
2017-05-25T07:42:17.084Z,20.80
2017-05-25T07:44:45.876Z,21.00
2017-05-25T07:47:14.686Z,21.30
2017-05-25T07:49:43.511Z,21.40
2017-05-25T07:52:12.327Z,21.50
2017-05-25T07:54:41.196Z,21.60
2017-05-25T07:57:10.009Z,21.60
2017-05-25T07:59:38.847Z,22.00
2017-05-25T08:02:07.727Z,22.20
2017-05-25T08:04:36.568Z,22.50
2017-05-25T08:07:05.419Z,22.40
2017-05-25T08:09:34.259Z,22.40
2017-05-25T08:12:03.063Z,22.50
2017-05-25T08:14:31.898Z,22.10
2017-05-25T08:17:00.756Z,21.90
2017-05-25T08:19:29.567Z,22.20
2017-05-25T08:21:58.370Z,22.40
2017-05-25T08:24:27.198Z,22.20
2017-05-25T08:26:56.020Z,22.10
2017-05-25T08:29:24.863Z,22.30
2017-05-25T08:31:53.674Z,22.70
2017-05-25T08:34:22.491Z,23.20
2017-05-25T08:36:51.405Z,23.60
2017-05-25T08:39:20.228Z,23.90
2017-05-25T08:41:48.554Z,24.20
2017-05-25T08:44:17.310Z,24.00
2017-05-25T08:46:46.162Z,24.00
2017-05-25T08:49:14.991Z,24.10
2017-05-25T08:51:43.815Z,24.20
2017-05-25T08:54:12.638Z,24.60
2017-05-25T08:56:41.474Z,24.90
2017-05-25T08:59:10.304Z,24.50
2017-05-25T09:01:39.187Z,24.60
2017-05-25T09:04:08.020Z,24.90
2017-05-25T09:06:36.830Z,24.80
2017-05-25T09:09:05.688Z,24.40
2017-05-25T09:11:34.504Z,24.50
2017-05-25T09:14:03.353Z,24.80
2017-05-25T09:16:32.258Z,24.30
2017-05-25T09:19:01.060Z,24.10
2017-05-25T09:21:29.910Z,24.00
2017-05-25T09:23:58.753Z,24.50
2017-05-25T09:26:28.531Z,24.60
2017-05-25T09:28:57.344Z,24.30
2017-05-25T09:31:26.162Z,24.10
2017-05-25T09:33:54.965Z,23.90
2017-05-25T09:36:23.806Z,23.90
2017-05-25T09:38:52.182Z,23.60
2017-05-25T09:41:20.448Z,23.20
2017-05-25T09:43:48.773Z,23.00
2017-05-25T09:46:16.255Z,23.00
2017-05-25T09:48:44.557Z,22.90
2017-05-25T09:51:12.816Z,22.90
2017-05-25T09:53:41.075Z,22.80
2017-05-25T09:56:09.363Z,22.90
2017-05-25T09:58:37.614Z,23.00
2017-05-25T10:01:05.895Z,23.40
2017-05-25T10:03:34.245Z,23.80
2017-05-25T10:06:03.015Z,24.10
2017-05-25T10:08:31.370Z,23.90
2017-05-25T10:10:59.677Z,23.40
2017-05-25T10:13:27.949Z,23.90
2017-05-25T10:15:56.189Z,24.30
2017-05-25T10:18:25.010Z,24.80
2017-05-25T10:20:53.340Z,25.60
2017-05-25T10:23:22.156Z,26.10
2017-05-25T10:25:51.002Z,26.30
2017-05-25T10:28:19.814Z,26.50
2017-05-25T10:30:48.797Z,27.00
2017-05-25T10:33:17.684Z,27.10
2017-05-25T10:35:45.993Z,26.40
2017-05-25T10:38:14.291Z,26.00
2017-05-25T10:40:43.370Z,26.00
2017-05-25T10:43:12.283Z,25.90
2017-05-25T10:45:40.623Z,25.30
2017-05-25T10:48:08.991Z,25.20
2017-05-25T10:50:37.258Z,24.80
2017-05-25T10:53:06.058Z,24.70
2017-05-25T10:55:34.445Z,24.30
2017-05-25T10:58:02.747Z,24.30
2017-05-25T11:00:31.149Z,24.70
2017-05-25T11:02:59.958Z,25.20
2017-05-25T11:05:28.914Z,25.90
2017-05-25T11:07:57.731Z,26.50
2017-05-25T11:10:26.643Z,26.60
2017-05-25T11:12:55.567Z,26.80
2017-05-25T11:15:24.380Z,27.10
2017-05-25T11:17:53.254Z,27.60
2017-05-25T11:20:22.102Z,27.90
2017-05-25T11:22:50.891Z,28.20
2017-05-25T11:25:19.796Z,28.80
2017-05-25T11:27:48.749Z,28.70
2017-05-25T11:30:17.674Z,28.80
2017-05-25T11:32:46.560Z,28.00
2017-05-25T11:35:15.455Z,28.30
2017-05-25T11:37:44.350Z,28.30
2017-05-25T11:40:13.225Z,27.30
2017-05-25T11:42:41.572Z,26.80
2017-05-25T11:45:09.843Z,26.70
2017-05-25T11:47:38.566Z,26.80
2017-05-25T11:50:06.988Z,26.80
2017-05-25T11:52:35.714Z,27.50
2017-05-25T11:55:04.590Z,28.30
2017-05-25T11:57:33.429Z,28.80
2017-05-25T12:00:02.266Z,28.30
2017-05-25T12:02:31.132Z,28.30
2017-05-25T12:04:59.970Z,28.20
2017-05-25T12:07:28.776Z,28.30
2017-05-25T12:09:57.601Z,27.90
2017-05-25T12:12:26.459Z,27.70
2017-05-25T12:14:55.351Z,28.40
2017-05-25T12:17:24.217Z,28.80
2017-05-25T12:19:53.092Z,28.90
2017-05-25T12:22:21.951Z,28.90
2017-05-25T12:24:50.816Z,28.70
2017-05-25T12:27:19.647Z,29.00
2017-05-25T12:29:48.521Z,28.90
2017-05-25T12:32:17.314Z,29.60
2017-05-25T12:34:46.161Z,29.70
2017-05-25T12:37:14.981Z,28.40
2017-05-25T12:39:43.364Z,27.40
2017-05-25T12:42:11.618Z,26.80
2017-05-25T12:44:39.923Z,27.00
2017-05-25T12:47:08.655Z,26.90
2017-05-25T12:49:37.509Z,27.30
2017-05-25T12:52:06.380Z,28.10
2017-05-25T12:54:35.235Z,28.80
2017-05-25T12:57:04.109Z,29.50
2017-05-25T12:59:32.958Z,29.80
2017-05-25T13:02:01.874Z,30.40
2017-05-25T13:04:30.801Z,29.80
2017-05-25T13:06:59.694Z,29.30
2017-05-25T13:09:28.590Z,29.90
2017-05-25T13:11:57.451Z,30.10
2017-05-25T13:14:26.361Z,29.90
2017-05-25T13:16:55.320Z,29.50
2017-05-25T13:19:24.143Z,29.10
2017-05-25T13:21:53.092Z,28.70
2017-05-25T13:24:21.898Z,28.90
2017-05-25T13:26:50.723Z,28.40
2017-05-25T13:29:19.550Z,28.20
2017-05-25T13:31:48.382Z,27.80
2017-05-25T13:34:16.809Z,27.50
2017-05-25T13:36:45.041Z,27.40
2017-05-25T13:39:13.305Z,27.20
2017-05-25T13:41:41.560Z,27.00
2017-05-25T13:44:09.881Z,26.70
2017-05-25T13:46:38.154Z,24.40
2017-05-25T13:49:06.424Z,26.20
2017-05-25T13:51:34.677Z,26.00
2017-05-25T13:54:02.924Z,25.90
2017-05-25T13:56:31.178Z,25.90
2017-05-25T13:58:59.445Z,26.00
2017-05-25T14:01:27.696Z,25.50
2017-05-25T14:03:56.459Z,25.10
2017-05-25T14:06:24.821Z,25.10
2017-05-25T14:08:53.095Z,25.20
2017-05-25T14:11:21.341Z,25.50
2017-05-25T14:13:50.132Z,25.70
2017-05-25T14:16:18.943Z,25.70
2017-05-25T14:18:47.783Z,25.90
2017-05-25T14:21:16.617Z,26.10
2017-05-25T14:23:45.425Z,26.30
2017-05-25T14:26:14.326Z,26.40
2017-05-25T14:28:42.426Z,26.30
2017-05-25T14:31:11.266Z,26.70
2017-05-25T14:33:40.139Z,26.40
2017-05-25T14:36:09.839Z,26.10
2017-05-25T14:38:38.717Z,25.70
2017-05-25T14:41:07.557Z,25.60
2017-05-25T14:43:36.381Z,25.40
2017-05-25T14:46:05.559Z,25.40
2017-05-25T14:48:34.913Z,25.30
2017-05-25T14:51:03.795Z,25.40
2017-05-25T14:53:32.627Z,25.20
2017-05-25T14:56:00.974Z,25.10
2017-05-25T14:58:29.298Z,25.00
2017-05-25T15:00:58.035Z,25.10
2017-05-25T15:03:26.833Z,25.00
2017-05-25T15:05:55.231Z,25.00
2017-05-25T15:08:23.513Z,25.00
2017-05-25T15:10:52.257Z,25.10
2017-05-25T15:13:21.110Z,25.20
2017-05-25T15:15:49.968Z,25.30
2017-05-25T15:18:18.791Z,25.20
2017-05-25T15:20:47.654Z,25.10
2017-05-25T15:23:16.078Z,25.00
2017-05-25T15:25:44.472Z,24.90
2017-05-25T15:28:12.670Z,24.90
2017-05-25T15:30:44.682Z,24.70
2017-05-25T15:33:13.022Z,24.80
2017-05-25T15:35:41.320Z,24.80
2017-05-25T15:38:09.591Z,24.80
2017-05-25T15:40:37.888Z,24.90
2017-05-25T15:43:06.638Z,24.90
2017-05-25T15:45:35.109Z,24.80
2017-05-25T15:48:03.379Z,24.80
2017-05-25T15:50:32.110Z,24.50
2017-05-25T15:53:01.006Z,24.40
2017-05-25T15:55:29.825Z,24.50
2017-05-25T15:57:58.646Z,24.50
2017-05-25T16:00:27.514Z,24.50
2017-05-25T16:02:56.324Z,24.60
2017-05-25T16:05:25.170Z,24.70
2017-05-25T16:07:53.998Z,24.70
2017-05-25T16:10:22.802Z,24.50
2017-05-25T16:12:51.677Z,24.40
2017-05-25T16:15:20.565Z,24.60
2017-05-25T16:17:49.379Z,24.40
2017-05-25T16:20:18.220Z,24.20
2017-05-25T16:22:47.050Z,24.00
2017-05-25T16:25:16.038Z,23.90
2017-05-25T16:27:44.847Z,23.80
2017-05-25T16:30:13.703Z,23.60
2017-05-25T16:32:42.546Z,23.60
2017-05-25T16:35:11.356Z,24.10
2017-05-25T16:37:40.183Z,24.30
2017-05-25T16:40:09.037Z,24.30
2017-05-25T16:42:38.572Z,24.20
2017-05-25T16:45:07.470Z,24.10
2017-05-25T16:47:36.309Z,23.80
2017-05-25T16:50:05.103Z,23.60
2017-05-25T16:52:33.917Z,23.40
2017-05-25T16:55:02.758Z,23.60
2017-05-25T16:57:31.585Z,23.80
2017-05-25T17:00:00.382Z,23.80
2017-05-25T17:02:29.246Z,24.00
2017-05-25T17:04:58.064Z,24.30
2017-05-25T17:07:26.934Z,24.00
2017-05-25T17:09:55.763Z,23.90
2017-05-25T17:12:24.681Z,23.90
2017-05-25T17:14:53.490Z,23.90
2017-05-25T17:17:22.450Z,23.80
2017-05-25T17:19:51.270Z,23.60
2017-05-25T17:22:20.218Z,23.40
2017-05-25T17:24:48.242Z,23.40
2017-05-25T17:27:17.084Z,23.10
2017-05-25T17:29:45.930Z,23.00
2017-05-25T17:32:14.777Z,22.90
2017-05-25T17:34:42.923Z,22.90
2017-05-25T17:37:11.738Z,22.80
2017-05-25T17:39:40.554Z,22.80
2017-05-25T17:42:09.397Z,22.80
2017-05-25T17:44:38.244Z,22.80
2017-05-25T17:47:07.086Z,22.80
2017-05-25T17:49:35.904Z,22.80
2017-05-25T17:52:04.737Z,22.60
2017-05-25T17:54:33.644Z,22.50
2017-05-25T17:57:02.459Z,22.40
2017-05-25T17:59:31.287Z,22.40
2017-05-25T18:02:00.142Z,22.40
2017-05-25T18:04:28.969Z,22.20
2017-05-25T18:06:57.786Z,22.10
2017-05-25T18:09:26.615Z,22.00
2017-05-25T18:11:55.426Z,21.90
2017-05-25T18:14:24.266Z,21.90
2017-05-25T18:16:53.087Z,21.80
2017-05-25T18:19:21.894Z,21.70
2017-05-25T18:21:50.741Z,21.70
2017-05-25T18:24:19.546Z,21.60
2017-05-25T18:26:48.355Z,21.50
2017-05-25T18:29:17.196Z,21.20
2017-05-25T18:31:46.002Z,21.20
2017-05-25T18:34:14.821Z,21.10
2017-05-25T18:36:43.669Z,21.10
2017-05-25T18:39:12.474Z,20.90
2017-05-25T18:41:41.314Z,20.80
2017-05-25T18:44:10.126Z,20.70
2017-05-25T18:46:38.933Z,20.60
2017-05-25T18:49:07.766Z,20.60
2017-05-25T18:51:36.575Z,20.50
2017-05-25T18:54:04.630Z,20.50
2017-05-25T18:56:33.442Z,20.30
2017-05-25T18:59:02.305Z,20.30
2017-05-25T19:01:31.119Z,20.20
2017-05-25T19:03:59.938Z,20.20
2017-05-25T19:06:28.782Z,20.20
2017-05-25T19:08:57.589Z,20.00
2017-05-25T19:11:26.402Z,20.00
2017-05-25T19:13:55.254Z,20.00
2017-05-25T19:16:24.067Z,19.90
2017-05-25T19:18:52.879Z,19.70
2017-05-25T19:21:21.717Z,19.60
2017-05-25T19:23:49.763Z,19.60
2017-05-25T19:26:17.802Z,19.60
2017-05-25T19:28:46.639Z,19.50
2017-05-25T19:31:15.452Z,19.40
2017-05-25T19:33:44.292Z,19.30
2017-05-25T19:36:13.101Z,19.30
2017-05-25T19:38:41.914Z,19.30
2017-05-25T19:41:10.749Z,19.10
2017-05-25T19:43:39.554Z,19.10
2017-05-25T19:46:08.432Z,19.10
2017-05-25T19:48:37.276Z,19.10
2017-05-25T19:51:06.083Z,19.20
2017-05-25T19:53:34.132Z,19.20
2017-05-25T19:56:02.969Z,19.00
2017-05-25T19:58:31.791Z,19.00
2017-05-25T20:01:00.643Z,18.90
2017-05-25T20:03:29.479Z,18.80
2017-05-25T20:05:58.322Z,18.70
2017-05-25T20:08:27.143Z,18.60
2017-05-25T20:10:55.958Z,18.50
2017-05-25T20:13:24.795Z,18.50
2017-05-25T20:15:53.635Z,18.40
2017-05-25T20:18:22.453Z,18.40
2017-05-25T20:20:51.279Z,18.50
2017-05-25T20:23:20.095Z,18.40
2017-05-25T20:25:48.949Z,18.50
2017-05-25T20:28:17.746Z,18.40
2017-05-25T20:30:46.606Z,18.30
2017-05-25T20:33:15.438Z,18.30
2017-05-25T20:35:44.269Z,18.30
2017-05-25T20:38:13.134Z,18.30
2017-05-25T20:40:41.969Z,18.20
2017-05-25T20:43:10.911Z,18.30
2017-05-25T20:45:39.793Z,18.20
2017-05-25T20:48:08.623Z,18.20
2017-05-25T20:50:37.447Z,18.00
2017-05-25T20:53:06.297Z,18.00
2017-05-25T20:55:35.134Z,18.00
2017-05-25T20:58:03.950Z,18.00
2017-05-25T21:00:32.850Z,18.00
2017-05-25T21:03:01.709Z,18.00
2017-05-25T21:05:30.578Z,18.00
2017-05-25T21:07:59.481Z,17.90
2017-05-25T21:10:28.311Z,17.80
2017-05-25T21:12:56.394Z,17.80
2017-05-25T21:15:25.215Z,17.70
2017-05-25T21:17:54.049Z,17.70
2017-05-25T21:20:22.910Z,17.70
2017-05-25T21:22:51.733Z,17.70
2017-05-25T21:25:20.550Z,17.70
2017-05-25T21:27:48.625Z,17.70
2017-05-25T21:30:17.623Z,17.70
2017-05-25T21:32:46.435Z,17.70
2017-05-25T21:35:15.246Z,17.70
2017-05-25T21:37:44.087Z,17.70
2017-05-25T21:40:12.887Z,17.60
2017-05-25T21:42:41.723Z,17.60
2017-05-25T21:45:10.545Z,17.50
2017-05-25T21:47:39.357Z,17.50
2017-05-25T21:50:08.234Z,17.50
2017-05-25T21:52:37.043Z,17.40
2017-05-25T21:55:05.867Z,17.50
2017-05-25T21:57:35.523Z,17.50
2017-05-25T22:00:04.397Z,17.40
2017-05-25T22:02:33.388Z,17.40
2017-05-25T22:05:02.487Z,17.40
2017-05-25T22:07:30.572Z,17.40
2017-05-25T22:09:59.395Z,17.40
2017-05-25T22:12:28.202Z,17.40
2017-05-25T22:14:57.046Z,17.30
2017-05-25T22:17:25.905Z,17.30
2017-05-25T22:19:54.713Z,17.10
2017-05-25T22:22:23.528Z,17.10
2017-05-25T22:24:52.368Z,17.00
2017-05-25T22:27:21.175Z,17.00
2017-05-25T22:29:50.018Z,17.10
2017-05-25T22:32:18.828Z,17.00
2017-05-25T22:34:47.674Z,17.00
2017-05-25T22:37:16.526Z,17.10
2017-05-25T22:39:44.586Z,17.10
2017-05-25T22:42:13.413Z,17.00
2017-05-25T22:44:42.582Z,17.20
2017-05-25T22:47:11.477Z,17.20
2017-05-25T22:49:40.252Z,17.10
2017-05-25T22:52:09.231Z,17.10
2017-05-25T22:54:38.073Z,17.00
2017-05-25T22:57:06.973Z,16.90
2017-05-25T22:59:35.781Z,16.80
2017-05-25T23:02:04.598Z,16.80
2017-05-25T23:04:33.438Z,16.70
2017-05-25T23:07:02.241Z,16.80
2017-05-25T23:09:31.055Z,17.00
2017-05-25T23:11:59.882Z,17.00
2017-05-25T23:14:28.694Z,17.00
2017-05-25T23:16:57.523Z,16.90
2017-05-25T23:19:26.395Z,16.90
2017-05-25T23:21:55.226Z,16.90
2017-05-25T23:24:24.050Z,16.90
2017-05-25T23:26:52.927Z,16.90
2017-05-25T23:29:21.782Z,16.90
2017-05-25T23:31:50.602Z,16.90
2017-05-25T23:34:19.414Z,16.70
2017-05-25T23:36:48.243Z,16.50
2017-05-25T23:39:17.051Z,16.40
2017-05-25T23:41:45.878Z,16.50
2017-05-25T23:44:14.736Z,16.40
2017-05-25T23:46:43.560Z,16.40
2017-05-25T23:49:12.341Z,16.40
2017-05-25T23:51:41.186Z,16.50
2017-05-25T23:54:09.991Z,16.50
2017-05-25T23:56:38.811Z,16.60
2017-05-25T23:59:07.623Z,16.60
